createdAt,value
2018-09-06T00:01:22.372Z,6.53
2018-09-06T00:03:51.427Z,7.15
2018-09-06T00:06:19.608Z,6.87
2018-09-06T00:08:47.800Z,7.92
2018-09-06T00:11:15.917Z,8.38
2018-09-06T00:13:44.098Z,7.15
2018-09-06T00:16:12.271Z,6.95
2018-09-06T00:18:40.409Z,7.30
2018-09-06T00:21:08.573Z,7.35
2018-09-06T00:23:36.739Z,7.05
2018-09-06T00:26:04.911Z,6.90
2018-09-06T00:28:33.095Z,7.50
2018-09-06T00:31:01.289Z,8.23
2018-09-06T00:33:29.442Z,8.55
2018-09-06T00:35:57.650Z,7.85
2018-09-06T00:38:25.838Z,7.90
2018-09-06T00:40:54.082Z,6.78
2018-09-06T00:43:22.265Z,8.00
2018-09-06T00:45:50.464Z,7.45
2018-09-06T00:48:18.628Z,6.72
2018-09-06T00:50:46.793Z,7.85
2018-09-06T00:53:14.959Z,7.80
2018-09-06T00:55:43.151Z,8.58
2018-09-06T00:58:11.375Z,7.70
2018-09-06T01:00:39.592Z,6.72
2018-09-06T01:03:07.766Z,7.37
2018-09-06T01:05:35.936Z,8.53
2018-09-06T01:08:04.111Z,7.25
2018-09-06T01:10:32.285Z,8.00
2018-09-06T01:13:00.431Z,7.60
2018-09-06T01:15:28.581Z,7.80
2018-09-06T01:17:56.802Z,8.08
2018-09-06T01:20:24.983Z,9.33
2018-09-06T01:22:53.160Z,8.20
2018-09-06T01:25:21.324Z,8.50
2018-09-06T01:27:49.483Z,9.60
2018-09-06T01:30:17.671Z,8.55
2018-09-06T01:32:45.852Z,8.20
2018-09-06T01:35:14.011Z,8.78
2018-09-06T01:37:42.136Z,8.60
2018-09-06T01:40:10.289Z,9.10
2018-09-06T01:42:38.418Z,9.55
2018-09-06T01:45:06.616Z,10.70
2018-09-06T01:47:34.735Z,9.88
2018-09-06T01:50:02.883Z,9.43
2018-09-06T01:52:31.066Z,9.55
2018-09-06T01:54:59.206Z,10.10
2018-09-06T01:57:27.357Z,9.55
2018-09-06T01:59:55.529Z,10.50
2018-09-06T02:02:23.717Z,11.78
2018-09-06T02:04:51.874Z,12.10
2018-09-06T02:07:20.078Z,10.90
2018-09-06T02:09:48.256Z,10.40
2018-09-06T02:12:16.398Z,11.15
2018-09-06T02:14:44.558Z,10.82
2018-09-06T02:17:12.785Z,9.35
2018-09-06T02:19:40.908Z,11.50
2018-09-06T02:22:09.088Z,10.10
2018-09-06T02:24:37.301Z,11.35
2018-09-06T02:27:05.440Z,10.48
2018-09-06T02:29:33.632Z,11.18
2018-09-06T02:32:02.042Z,12.33
2018-09-06T02:34:30.184Z,11.12
2018-09-06T02:36:58.365Z,12.53
2018-09-06T02:39:26.513Z,12.50
2018-09-06T02:41:54.676Z,12.53
2018-09-06T02:44:22.806Z,13.10
2018-09-06T02:46:50.935Z,13.25
2018-09-06T02:49:23.329Z,12.40
2018-09-06T02:51:51.542Z,13.10
2018-09-06T02:54:19.676Z,14.50
2018-09-06T02:56:47.866Z,13.95
2018-09-06T02:59:16.024Z,14.50
2018-09-06T03:01:44.252Z,14.60
2018-09-06T03:04:12.384Z,16.77
2018-09-06T03:06:40.555Z,15.90
2018-09-06T03:09:08.725Z,16.23
2018-09-06T03:11:42.365Z,16.60
2018-09-06T03:14:10.771Z,16.35
2018-09-06T03:16:39.044Z,17.02
2018-09-06T03:19:07.243Z,18.12
2018-09-06T03:21:35.628Z,19.20
2018-09-06T03:24:03.819Z,21.37
2018-09-06T03:26:31.976Z,18.45
2018-09-06T03:29:00.144Z,20.12
2018-09-06T03:31:28.292Z,20.52
2018-09-06T03:33:56.475Z,17.17
2018-09-06T03:36:24.644Z,17.42
2018-09-06T03:38:52.759Z,19.02
2018-09-06T03:41:21.970Z,21.23
2018-09-06T03:43:50.096Z,19.35
2018-09-06T03:46:18.231Z,22.17
2018-09-06T03:48:46.379Z,21.82
2018-09-06T03:51:14.536Z,21.95
2018-09-06T03:53:42.699Z,20.95
2018-09-06T03:56:10.856Z,21.97
2018-09-06T03:58:39.010Z,22.13
2018-09-06T04:01:07.203Z,29.18
2018-09-06T04:03:35.397Z,23.67
2018-09-06T04:06:03.549Z,23.62
2018-09-06T04:08:31.740Z,24.45
2018-09-06T04:10:59.893Z,25.97
2018-09-06T04:13:28.075Z,26.85
2018-09-06T04:15:56.213Z,28.15
2018-09-06T04:18:24.370Z,25.20
2018-09-06T04:20:52.517Z,26.40
2018-09-06T04:23:20.635Z,25.80
2018-09-06T04:25:48.782Z,26.62
2018-09-06T04:28:16.929Z,26.48
2018-09-06T04:30:45.116Z,30.92
2018-09-06T04:33:13.319Z,32.17
2018-09-06T04:35:41.449Z,34.65
2018-09-06T04:38:09.576Z,32.10
2018-09-06T04:40:37.799Z,36.50
2018-09-06T04:43:06.068Z,32.25
2018-09-06T04:45:34.298Z,35.03
2018-09-06T04:48:02.435Z,37.17
2018-09-06T04:50:30.587Z,37.98
2018-09-06T04:52:58.745Z,42.25
2018-09-06T04:55:26.977Z,41.45
2018-09-06T04:57:55.111Z,40.60
2018-09-06T05:00:23.346Z,37.25
2018-09-06T05:02:51.777Z,35.90
2018-09-06T05:05:19.953Z,37.13
2018-09-06T05:07:48.143Z,35.00
2018-09-06T05:10:16.289Z,36.75
2018-09-06T05:12:44.469Z,40.40
2018-09-06T05:15:12.708Z,35.40
2018-09-06T05:17:40.907Z,38.53
2018-09-06T05:20:09.166Z,38.23
2018-09-06T05:22:37.384Z,36.15
2018-09-06T05:25:05.537Z,42.27
2018-09-06T05:27:33.730Z,38.13
2018-09-06T05:30:01.925Z,35.17
2018-09-06T05:32:30.074Z,40.30
2018-09-06T05:34:58.237Z,43.52
2018-09-06T05:37:26.395Z,42.45
2018-09-06T05:39:54.564Z,43.98
2018-09-06T05:42:22.724Z,42.20
2018-09-06T05:44:50.876Z,46.65
2018-09-06T05:47:19.046Z,45.17
2018-09-06T05:49:47.156Z,42.60
2018-09-06T05:52:15.296Z,41.90
2018-09-06T05:54:43.637Z,48.40
2018-09-06T05:57:11.834Z,41.18
2018-09-06T05:59:39.975Z,50.28
2018-09-06T06:02:08.136Z,41.95
2018-09-06T06:04:36.424Z,40.05
2018-09-06T06:07:04.628Z,43.25
2018-09-06T06:09:32.878Z,42.80
2018-09-06T06:12:01.040Z,48.25
2018-09-06T06:14:29.253Z,43.42
2018-09-06T06:16:57.469Z,46.05
2018-09-06T06:19:25.749Z,45.60
2018-09-06T06:21:53.986Z,46.10
2018-09-06T06:24:22.232Z,41.02
2018-09-06T06:26:50.498Z,41.95
2018-09-06T06:29:19.912Z,43.65
2018-09-06T06:31:48.286Z,41.25
2018-09-06T06:34:16.415Z,44.15
2018-09-06T06:36:45.673Z,43.08
2018-09-06T06:39:14.850Z,44.50
2018-09-06T06:41:43.330Z,37.20
2018-09-06T06:44:11.815Z,42.40
2018-09-06T06:46:39.999Z,42.65
2018-09-06T06:49:08.205Z,41.48
2018-09-06T06:51:39.773Z,42.17
2018-09-06T06:54:07.999Z,36.90
2018-09-06T06:56:36.232Z,39.13
2018-09-06T06:59:04.405Z,37.78
2018-09-06T07:01:32.889Z,37.67
2018-09-06T07:04:01.129Z,33.45
2018-09-06T07:06:29.709Z,31.80
2018-09-06T07:08:57.854Z,31.15
2018-09-06T07:11:26.028Z,32.08
2018-09-06T07:13:54.254Z,38.80
2018-09-06T07:16:22.455Z,38.70
2018-09-06T07:18:50.624Z,31.20
2018-09-06T07:21:18.813Z,32.33
2018-09-06T07:23:46.983Z,33.95
2018-09-06T07:26:15.161Z,37.13
2018-09-06T07:28:43.353Z,32.08
2018-09-06T07:31:11.520Z,31.00
2018-09-06T07:33:39.641Z,31.33
2018-09-06T07:36:07.818Z,31.30
2018-09-06T07:38:35.976Z,30.13
2018-09-06T07:41:04.137Z,31.37
2018-09-06T07:43:32.277Z,33.03
2018-09-06T07:46:00.472Z,34.00
2018-09-06T07:48:28.632Z,31.10
2018-09-06T07:50:56.775Z,34.03
2018-09-06T07:53:25.032Z,30.25
2018-09-06T07:55:53.335Z,30.67
2018-09-06T07:58:21.513Z,30.50
2018-09-06T08:00:49.829Z,27.22
2018-09-06T08:03:18.033Z,28.73
2018-09-06T08:05:46.188Z,31.10
2018-09-06T08:08:14.386Z,29.03
2018-09-06T08:10:42.553Z,31.63
2018-09-06T08:13:10.668Z,30.20
2018-09-06T08:15:38.826Z,29.10
2018-09-06T08:18:06.972Z,30.23
2018-09-06T08:20:35.128Z,30.17
2018-09-06T08:23:03.289Z,32.10
2018-09-06T08:25:31.820Z,31.20
2018-09-06T08:27:59.993Z,31.40
2018-09-06T08:30:28.185Z,32.40
2018-09-06T08:32:56.312Z,31.33
2018-09-06T08:35:24.485Z,35.60
2018-09-06T08:37:52.677Z,34.50
2018-09-06T08:40:20.792Z,32.67
2018-09-06T08:42:49.040Z,31.60
2018-09-06T08:45:17.292Z,35.77
2018-09-06T08:47:45.433Z,34.70
2018-09-06T08:50:13.669Z,30.90
2018-09-06T08:52:41.853Z,32.70
2018-09-06T08:55:10.044Z,29.90
2018-09-06T08:57:38.179Z,33.20
2018-09-06T09:00:06.363Z,29.87
2018-09-06T09:02:34.612Z,31.40
2018-09-06T09:05:02.781Z,26.83
2018-09-06T09:07:31.007Z,29.50
2018-09-06T09:09:59.172Z,26.80
2018-09-06T09:12:27.378Z,27.33
2018-09-06T09:14:55.506Z,28.57
2018-09-06T09:17:23.670Z,28.00
2018-09-06T09:19:52.237Z,25.83
2018-09-06T09:22:20.501Z,27.10
2018-09-06T09:24:48.603Z,28.93
2018-09-06T09:27:16.793Z,24.77
2018-09-06T09:29:44.968Z,23.53
2018-09-06T09:32:13.135Z,25.90
2018-09-06T09:34:41.270Z,26.60
2018-09-06T09:37:09.472Z,25.30
2018-09-06T09:39:37.653Z,25.73
2018-09-06T09:42:05.880Z,23.03
2018-09-06T09:44:34.019Z,24.50
2018-09-06T09:49:29.733Z,23.87
2018-09-06T09:51:57.855Z,23.40
2018-09-06T09:54:25.976Z,24.73
2018-09-06T09:56:54.238Z,21.37
2018-09-06T09:59:22.957Z,23.23
2018-09-06T10:01:56.504Z,22.17
2018-09-06T10:04:29.997Z,23.33
2018-09-06T10:07:03.479Z,19.20
2018-09-06T10:09:32.170Z,20.80
2018-09-06T10:12:00.308Z,20.60
2018-09-06T10:14:28.530Z,18.70
2018-09-06T10:16:56.672Z,17.77
2018-09-06T10:19:24.841Z,20.03
2018-09-06T10:21:53.068Z,18.83
2018-09-06T10:24:21.256Z,18.37
2018-09-06T10:26:49.409Z,17.70
2018-09-06T10:29:17.603Z,19.80
2018-09-06T10:31:46.057Z,18.00
2018-09-06T10:34:14.182Z,18.00
2018-09-06T10:36:42.339Z,18.23
2018-09-06T10:39:10.964Z,16.63
2018-09-06T10:41:39.216Z,18.67
2018-09-06T10:44:07.491Z,18.70
2018-09-06T10:46:35.718Z,18.87
2018-09-06T10:49:03.895Z,17.80
2018-09-06T10:51:32.060Z,20.60
2018-09-06T10:54:00.426Z,18.30
2018-09-06T10:56:28.696Z,19.50
2018-09-06T10:58:56.888Z,16.60
2018-09-06T11:01:25.525Z,21.70
2018-09-06T11:03:54.901Z,16.47
2018-09-06T11:06:23.304Z,15.50
2018-09-06T11:08:51.596Z,16.53
2018-09-06T11:11:19.792Z,16.33
2018-09-06T11:13:47.926Z,16.00
2018-09-06T11:16:16.772Z,15.53
2018-09-06T11:18:44.942Z,15.67
2018-09-06T11:21:13.154Z,16.30
2018-09-06T11:23:41.201Z,16.23
2018-09-06T11:26:09.387Z,15.93
2018-09-06T11:28:37.542Z,21.17
2018-09-06T11:31:05.788Z,14.60
2018-09-06T11:33:33.922Z,17.00
2018-09-06T11:36:02.063Z,14.90
2018-09-06T11:38:30.179Z,15.50
2018-09-06T11:40:58.319Z,16.63
2018-09-06T11:43:26.483Z,16.17
2018-09-06T11:45:54.643Z,15.90
2018-09-06T11:48:22.760Z,14.70
2018-09-06T11:50:50.884Z,13.80
2018-09-06T11:53:18.992Z,14.93
2018-09-06T11:55:47.119Z,15.80
2018-09-06T11:58:15.247Z,16.43
2018-09-06T12:00:44.532Z,16.20
2018-09-06T12:03:12.700Z,14.37
2018-09-06T12:05:40.880Z,14.23
2018-09-06T12:08:09.044Z,14.70
2018-09-06T12:10:37.208Z,15.70
2018-09-06T12:13:05.373Z,15.47
2018-09-06T12:15:33.693Z,13.20
2018-09-06T12:18:01.847Z,14.93
2018-09-06T12:23:20.293Z,14.83
2018-09-06T12:25:48.497Z,12.90
2018-09-06T12:28:16.596Z,13.90
2018-09-06T12:30:44.767Z,15.47
2018-09-06T12:33:12.934Z,14.83
2018-09-06T12:35:41.019Z,13.50
2018-09-06T12:38:09.169Z,14.50
2018-09-06T12:40:37.284Z,12.90
2018-09-06T12:43:05.444Z,12.10
2018-09-06T12:45:33.591Z,12.60
2018-09-06T12:48:01.749Z,13.70
2018-09-06T12:50:29.905Z,12.47
2018-09-06T12:52:58.055Z,12.50
2018-09-06T12:55:26.142Z,16.10
2018-09-06T12:57:54.236Z,12.63
2018-09-06T13:00:22.360Z,10.33
2018-09-06T13:02:50.485Z,12.33
2018-09-06T13:05:18.624Z,12.93
2018-09-06T13:07:46.745Z,11.33
2018-09-06T13:10:14.873Z,12.97
2018-09-06T13:12:42.988Z,12.03
2018-09-06T13:18:02.024Z,12.10
2018-09-06T13:20:30.171Z,12.10
2018-09-06T13:22:58.335Z,12.23
2018-09-06T13:25:26.500Z,12.07
2018-09-06T13:27:54.639Z,12.90
2018-09-06T13:30:22.840Z,12.43
2018-09-06T13:32:51.015Z,12.10
2018-09-06T13:35:19.169Z,13.23
2018-09-06T13:37:47.308Z,12.70
2018-09-06T13:40:15.524Z,13.57
2018-09-06T13:42:43.884Z,13.60
2018-09-06T13:45:12.134Z,12.40
2018-09-06T13:47:40.396Z,13.23
2018-09-06T13:50:08.660Z,12.40
2018-09-06T13:52:36.880Z,12.57
2018-09-06T13:55:05.151Z,12.77
2018-09-06T13:57:33.347Z,12.40
2018-09-06T14:00:01.671Z,11.07
2018-09-06T14:02:29.907Z,12.43
2018-09-06T14:04:58.379Z,11.33
2018-09-06T14:07:26.765Z,11.70
2018-09-06T14:09:54.945Z,12.97
2018-09-06T14:12:23.148Z,12.63
2018-09-06T14:14:51.333Z,12.70
2018-09-06T14:17:19.652Z,12.90
2018-09-06T14:19:48.056Z,12.93
2018-09-06T14:22:16.548Z,13.60
2018-09-06T14:24:44.722Z,12.10
2018-09-06T14:27:12.916Z,11.57
2018-09-06T14:29:41.440Z,11.53
2018-09-06T14:32:09.802Z,12.53
2018-09-06T14:34:38.100Z,11.53
2018-09-06T14:37:06.584Z,11.23
2018-09-06T14:39:34.880Z,10.90
2018-09-06T14:42:03.083Z,10.30
2018-09-06T14:44:31.451Z,10.57
2018-09-06T14:47:00.054Z,11.90
2018-09-06T14:49:28.521Z,10.13
2018-09-06T14:51:56.693Z,11.97
2018-09-06T14:54:24.965Z,16.73
2018-09-06T14:56:53.620Z,11.40
2018-09-06T14:59:21.792Z,11.07
2018-09-06T15:01:50.065Z,10.93
2018-09-06T15:04:18.295Z,11.13
2018-09-06T15:06:46.581Z,10.47
2018-09-06T15:09:14.932Z,11.07
2018-09-06T15:11:43.184Z,12.00
2018-09-06T15:14:11.377Z,10.90
2018-09-06T15:16:39.760Z,10.50
2018-09-06T15:19:07.962Z,10.13
2018-09-06T15:21:36.205Z,11.10
2018-09-06T15:24:04.422Z,11.93
2018-09-06T15:26:32.603Z,10.60
2018-09-06T15:29:00.806Z,10.67
2018-09-06T15:31:29.115Z,11.10
2018-09-06T15:33:57.267Z,11.10
2018-09-06T15:36:25.504Z,9.67
2018-09-06T15:38:54.320Z,12.10
2018-09-06T15:41:22.481Z,11.50
2018-09-06T15:43:50.668Z,10.40
2018-09-06T15:46:18.931Z,11.00
2018-09-06T15:48:47.156Z,10.93
2018-09-06T15:51:15.312Z,9.10
2018-09-06T15:53:43.679Z,10.47
2018-09-06T15:56:11.914Z,11.57
2018-09-06T15:58:40.246Z,12.03
2018-09-06T16:01:08.592Z,11.33
2018-09-06T16:03:36.881Z,14.33
2018-09-06T16:06:05.195Z,10.37
2018-09-06T16:08:33.438Z,10.17
2018-09-06T16:11:01.612Z,11.03
2018-09-06T16:13:29.769Z,11.07
2018-09-06T16:15:57.901Z,11.73
2018-09-06T16:18:26.144Z,10.60
2018-09-06T16:20:54.256Z,10.47
2018-09-06T16:23:22.429Z,10.57
2018-09-06T16:25:50.585Z,10.20
2018-09-06T16:28:18.689Z,12.50
2018-09-06T16:30:46.839Z,10.90
2018-09-06T16:33:14.952Z,9.30
2018-09-06T16:35:43.107Z,10.00
2018-09-06T16:38:11.240Z,9.40
2018-09-06T16:40:39.367Z,10.17
2018-09-06T16:43:07.499Z,9.73
2018-09-06T16:45:35.610Z,9.60
2018-09-06T16:48:03.716Z,10.60
2018-09-06T16:50:31.848Z,9.97
2018-09-06T16:53:00.028Z,10.10
2018-09-06T16:55:28.135Z,10.00
2018-09-06T16:57:56.256Z,9.60
2018-09-06T17:00:24.399Z,10.87
2018-09-06T17:02:52.520Z,10.50
2018-09-06T17:05:20.628Z,10.23
2018-09-06T17:07:48.767Z,10.13
2018-09-06T17:10:17.019Z,9.30
2018-09-06T17:12:45.148Z,9.13
2018-09-06T17:15:13.322Z,10.90
2018-09-06T17:17:41.853Z,9.77
2018-09-06T17:20:10.083Z,9.37
2018-09-06T17:22:38.224Z,9.93
2018-09-06T17:25:06.436Z,11.20
2018-09-06T17:27:34.567Z,10.07
2018-09-06T17:30:02.727Z,9.90
2018-09-06T17:32:30.908Z,9.30
2018-09-06T17:34:59.060Z,9.50
2018-09-06T17:37:27.176Z,9.60
2018-09-06T17:39:55.359Z,8.97
2018-09-06T17:42:23.574Z,10.00
2018-09-06T17:44:51.746Z,9.23
2018-09-06T17:47:19.852Z,10.50
2018-09-06T17:49:48.900Z,10.57
2018-09-06T17:52:17.099Z,11.73
2018-09-06T17:54:45.252Z,10.70
2018-09-06T17:57:13.357Z,13.47
2018-09-06T17:59:41.467Z,10.40
2018-09-06T18:02:09.587Z,10.93
2018-09-06T18:04:37.728Z,10.90
2018-09-06T18:07:05.864Z,13.47
2018-09-06T18:09:33.985Z,12.37
2018-09-06T18:12:02.179Z,13.00
2018-09-06T18:14:30.306Z,12.87
2018-09-06T18:16:58.447Z,11.73
2018-09-06T18:19:26.608Z,14.10
2018-09-06T18:21:54.780Z,12.23
2018-09-06T18:24:22.971Z,13.60
2018-09-06T18:26:51.128Z,15.33
2018-09-06T18:29:19.268Z,12.73
2018-09-06T18:31:47.531Z,13.30
2018-09-06T18:34:15.680Z,13.50
2018-09-06T18:36:43.817Z,14.23
2018-09-06T18:39:12.221Z,13.33
2018-09-06T18:41:40.376Z,13.50
2018-09-06T18:44:08.632Z,12.87
2018-09-06T18:46:36.776Z,11.90
2018-09-06T18:49:05.037Z,12.80
2018-09-06T18:51:33.180Z,17.37
2018-09-06T18:54:01.386Z,13.47
2018-09-06T18:56:30.624Z,13.67
2018-09-06T18:58:58.865Z,12.67
2018-09-06T19:01:27.018Z,14.43
2018-09-06T19:03:55.213Z,14.67
2018-09-06T19:09:27.421Z,15.40
2018-09-06T19:11:55.626Z,16.67
2018-09-06T19:14:23.849Z,15.77
2018-09-06T19:16:51.999Z,15.77
2018-09-06T19:19:20.230Z,15.40
2018-09-06T19:21:48.411Z,17.00
2018-09-06T19:24:16.612Z,15.83
2018-09-06T19:26:44.836Z,15.30
2018-09-06T19:29:13.013Z,16.43
2018-09-06T19:31:41.255Z,14.53
2018-09-06T19:34:09.419Z,16.93
2018-09-06T19:36:37.628Z,16.30
2018-09-06T19:39:08.611Z,17.53
2018-09-06T19:41:36.796Z,17.80
2018-09-06T19:44:05.190Z,19.33
2018-09-06T19:46:33.343Z,17.63
2018-09-06T19:49:01.574Z,18.70
2018-09-06T19:51:30.095Z,18.60
2018-09-06T19:53:58.361Z,16.67
2018-09-06T19:56:27.614Z,20.13
2018-09-06T19:58:55.812Z,19.23
2018-09-06T20:01:24.142Z,20.03
2018-09-06T20:03:52.384Z,21.33
2018-09-06T20:06:20.562Z,17.73
2018-09-06T20:08:48.888Z,19.33
2018-09-06T20:11:17.148Z,15.70
2018-09-06T20:13:45.484Z,17.90
2018-09-06T20:16:13.761Z,19.43
2018-09-06T20:18:41.947Z,18.40
2018-09-06T20:21:10.159Z,18.17
2018-09-06T20:23:38.292Z,19.60
2018-09-06T20:26:06.633Z,25.10
2018-09-06T20:28:35.897Z,22.53
2018-09-06T20:31:04.124Z,20.17
2018-09-06T20:33:32.399Z,18.67
2018-09-06T20:36:00.626Z,22.00
2018-09-06T20:38:28.812Z,22.57
2018-09-06T20:40:57.112Z,21.80
2018-09-06T20:43:25.338Z,21.87
2018-09-06T20:45:53.552Z,21.83
2018-09-06T20:48:21.829Z,22.93
2018-09-06T20:50:50.028Z,22.83
2018-09-06T20:53:18.780Z,20.80
2018-09-06T20:55:47.131Z,21.23
2018-09-06T20:58:15.306Z,22.10
2018-09-06T21:00:43.557Z,21.63
2018-09-06T21:03:11.815Z,21.30
2018-09-06T21:05:39.960Z,21.27
2018-09-06T21:08:08.170Z,25.23
2018-09-06T21:10:36.452Z,27.13
2018-09-06T21:13:04.720Z,26.47
2018-09-06T21:15:33.000Z,25.13
2018-09-06T21:18:01.228Z,24.93
2018-09-06T21:20:29.427Z,24.10
2018-09-06T21:22:57.674Z,24.97
2018-09-06T21:25:25.876Z,27.73
2018-09-06T21:27:54.083Z,26.67
2018-09-06T21:30:22.231Z,30.63
2018-09-06T21:32:50.400Z,28.77
2018-09-06T21:35:18.675Z,28.60
2018-09-06T21:37:46.896Z,31.37
2018-09-06T21:40:15.263Z,34.33
2018-09-06T21:42:43.334Z,31.90
2018-09-06T21:45:11.564Z,34.53
2018-09-06T21:47:39.767Z,34.10
2018-09-06T21:50:07.929Z,35.20
2018-09-06T21:52:36.212Z,41.50
2018-09-06T21:55:04.473Z,40.17
2018-09-06T21:57:32.710Z,39.57
2018-09-06T22:00:01.139Z,42.77
2018-09-06T22:02:34.690Z,39.10
2018-09-06T22:05:02.868Z,41.10
2018-09-06T22:07:31.043Z,43.47
2018-09-06T22:09:59.185Z,45.57
2018-09-06T22:12:27.368Z,41.97
2018-09-06T22:14:55.579Z,43.37
2018-09-06T22:17:23.732Z,42.20
2018-09-06T22:19:51.906Z,43.87
2018-09-06T22:22:20.096Z,44.97
2018-09-06T22:24:48.289Z,43.60
2018-09-06T22:27:16.594Z,46.87
2018-09-06T22:29:44.989Z,46.10
2018-09-06T22:32:18.303Z,50.40
2018-09-06T22:34:46.643Z,48.03
2018-09-06T22:37:14.847Z,46.40
2018-09-06T22:39:43.004Z,45.73
2018-09-06T22:42:11.339Z,52.27
2018-09-06T22:44:39.526Z,52.70
2018-09-06T22:47:07.726Z,50.10
2018-09-06T22:49:35.976Z,53.20
2018-09-06T22:52:04.555Z,50.13
2018-09-06T22:54:32.724Z,53.10
2018-09-06T22:57:01.015Z,53.27
2018-09-06T22:59:29.360Z,54.33
2018-09-06T23:01:58.549Z,55.90
2018-09-06T23:04:26.719Z,51.90
2018-09-06T23:06:54.891Z,53.47
2018-09-06T23:09:23.109Z,53.80
2018-09-06T23:11:51.273Z,53.40
2018-09-06T23:14:19.474Z,52.07
2018-09-06T23:16:47.632Z,52.60
2018-09-06T23:19:15.803Z,52.80
2018-09-06T23:21:44.014Z,55.27
2018-09-06T23:24:12.178Z,54.20
2018-09-06T23:26:40.362Z,55.93
2018-09-06T23:29:08.555Z,53.80
2018-09-06T23:31:36.992Z,52.53
2018-09-06T23:34:05.202Z,57.80
2018-09-06T23:36:33.371Z,55.33
2018-09-06T23:39:01.635Z,55.13
2018-09-06T23:41:29.806Z,58.20
2018-09-06T23:43:58.035Z,49.17
2018-09-06T23:46:26.195Z,56.33
2018-09-06T23:48:54.381Z,56.23
2018-09-06T23:51:22.562Z,51.47
2018-09-06T23:53:50.735Z,52.60
2018-09-06T23:56:18.863Z,55.73
2018-09-06T23:58:47.081Z,59.63
